Letiště Praha loni odbavilo bezmála 4,4 milionu cestujících

17.01.22 Letecká doprava se pomalu vzpamatovává z cestovních omezení v souvislosti s pandemií onemocnění Covid-19. To dokazují i čísla za rok 2021 z Letiště Václava Havla Praha. Oproti roku 2020 bylo odbaveno téměř o dvacet procent více cestujících a počet pohybů letadel narostl o třináct procent. Celý článek

Čedok představí Čechům novou destinaci v Egyptě, z Prahy nabídne lety do Marsa Matrouh

12.01.22 Egypt je populárním cílem, který Češi tradičně volí pro svou dovolenou. Chcete ale vyrazit na místo, kde se turismus teprve probouzí? Čedok přidává od letošního srpna do své nabídky nejbližší egyptskou destinaci Marsa Matrouh, která bude v České republice novinkou. Kromě již oblíbených letovisek Marsa Alam a Hurghada u Rudého moře tak poprvé půjde během pobytových i poznávacích zájezdů navštívit také neprozkoumaný sever země u Středozemního moře Celý článek

Zprávy

aktualizováno

20.01.22 Celý článek

Všechny zprávy    

Všechny články

Kurzy

Kalendář akcí

ICAO Refresh Course / Kurz
20.01.22 Flying Academy Beranových 130 Praha
ICAO English Exam / Zkouška - každý pátek v měsíci
21.01.22 Flying Academy Beranových 130 Praha
ICAO Refresh Course / Kurz
27.01.22 Flying Academy Beranových 130 Praha
ICAO English Exam / Zkouška - každý pátek v měsíci
28.01.22 Flying Academy Beranových 130 Praha
ICAO Refresh Course / Kurz
03.02.22 Flying Academy Beranových 130 Praha

Všechny akce

Zeptejte se odborníka

Zkušený personál jedné z největších leteckých škol Flying Academy je připraven Vám pomoci s jakýmikoli otázkami týkajícími se letectví.

Zeptejte se

Newsletter

Přihlaste se k odběru novinek.

Aktuální počasí

LKKB
LKKB 202200Z 29013KT CAVOK M01/M06 Q1019

LKKV
LKKV 202200Z 31013KT 290V350 9999 BKN020 M04/M09 Q1020

LKMT
LKMT 202200Z 26008KT 9999 FEW015 BKN048 M02/M05 Q1016 NOSIG

LKPR
LKPR 202200Z 28017KT 9999 -SHSN DRSN FEW003 SCT010 M03/M05 Q1019 TEMPO 5000 SHSN

LKTB
LKTB 202200Z 33005KT 9999 FEW031 M01/M05 Q1017 NOSIG

Briefing

Kurzy měn

AUD AUD 15.49 Kč
EUR EUR 24.26 Kč
GBP GBP 29.14 Kč
HUF HUF 6.82 Kč
CHF CHF 23.37 Kč
USD USD 21.40 Kč